Time;durP1;ratioP1;P1;durP2;ratioP2;P2;SDS_P1;SDS_P2;PMS_P1;PMS_P2;Temp;Humidity;BMP_temperature;BMP_pressure;BME280_temperature;BME280_humidity;BME280_pressure;Samples;Min_cycle;Max_cycle;Signal;HPM_P1;HPM_P2
2022/01/30 00:02:25;;;;;;;0.52;0.52;;;6.70;99.90;;;;;;4981773;28;20050;-72
2022/01/30 00:04:51;;;;;;;4.68;2.88;;;6.80;99.90;;;;;;4980137;29;20019;-72
2022/01/30 00:07:16;;;;;;;0.70;0.57;;;6.70;99.90;;;;;;4980903;29;20110;-72
2022/01/30 00:09:42;;;;;;;0.80;0.52;;;6.70;99.90;;;;;;4976853;29;20018;-73
2022/01/30 00:12:08;;;;;;;0.50;0.50;;;6.70;99.90;;;;;;4975020;28;20062;-73
2022/01/30 00:14:36;;;;;;;0.60;0.60;;;6.80;99.90;;;;;;4970688;29;20031;-72
2022/01/30 00:17:12;;;;;;;0.77;0.50;;;6.80;99.90;;;;;;4964706;28;20110;-72
2022/01/30 00:19:44;;;;;;;0.88;0.50;;;6.80;99.90;;;;;;4967190;28;20032;-72
2022/01/30 00:22:34;;;;;;;0.80;0.70;;;6.80;99.90;;;;;;4967325;28;20087;-72
2022/01/30 00:25:14;;;;;;;0.90;0.63;;;6.80;99.90;;;;;;4962234;29;20450;-74
2022/01/30 00:28:14;;;;;;;1.08;0.90;;;6.90;99.90;;;;;;4960801;29;20527;-73
2022/01/30 00:30:34;;;;;;;0.60;0.50;;;6.90;99.90;;;;;;4960316;29;20039;-73
2022/01/30 00:33:02;;;;;;;0.40;0.40;;;6.90;99.90;;;;;;4961547;28;20031;-73
2022/01/30 00:35:28;;;;;;;0.80;0.65;;;6.90;99.90;;;;;;4961694;28;20031;-73
2022/01/30 00:37:54;;;;;;;1.27;0.45;;;6.90;99.90;;;;;;4961027;29;20019;-73
2022/01/30 00:40:20;;;;;;;0.90;0.70;;;6.90;99.90;;;;;;4966667;29;20023;-72
2022/01/30 00:42:45;;;;;;;0.60;0.60;;;7.00;99.90;;;;;;4964460;28;20057;-74
2022/01/30 00:45:11;;;;;;;0.75;0.60;;;7.10;99.90;;;;;;4959865;29;20042;-73
2022/01/30 00:47:36;;;;;;;0.65;0.40;;;7.10;99.90;;;;;;4962067;29;20063;-73
2022/01/30 00:50:03;;;;;;;0.82;0.70;;;7.10;99.90;;;;;;4965402;29;20045;-72
2022/01/30 00:52:28;;;;;;;1.35;1.25;;;7.00;99.90;;;;;;4959682;28;20102;-72
2022/01/30 00:54:54;;;;;;;1.25;0.60;;;7.00;99.90;;;;;;4958263;29;20031;-72
2022/01/30 00:57:19;;;;;;;0.50;0.50;;;7.00;99.90;;;;;;4957461;29;20130;-72
2022/01/30 00:59:45;;;;;;;1.20;0.65;;;7.00;99.90;;;;;;4963458;29;20031;-73
2022/01/30 01:02:11;;;;;;;0.68;0.68;;;7.00;99.90;;;;;;4973517;28;20154;-73
2022/01/30 01:04:36;;;;;;;2.10;0.43;;;7.00;99.90;;;;;;4967179;29;20114;-74
2022/01/30 01:07:02;;;;;;;0.80;0.75;;;7.10;99.90;;;;;;4957660;29;20115;-73
2022/01/30 01:09:35;;;;;;;0.60;0.55;;;7.10;99.90;;;;;;4969593;29;20058;-72
2022/01/30 01:25:29;;;;;;;0.90;0.77;;;7.40;99.90;;;;;;4956377;29;20038;-71
2022/01/30 01:27:54;;;;;;;0.70;0.60;;;7.50;99.90;;;;;;4956798;29;20028;-74
2022/01/30 01:30:20;;;;;;;1.67;1.00;;;7.50;99.90;;;;;;4961740;28;20039;-71
2022/01/30 01:32:45;;;;;;;1.05;0.95;;;7.60;99.90;;;;;;4970616;28;20038;-73
2022/01/30 01:35:11;;;;;;;1.75;0.73;;;7.70;99.90;;;;;;4964234;29;20143;-72
2022/01/30 01:37:36;;;;;;;2.30;0.90;;;7.90;99.90;;;;;;4960250;29;20071;-72
2022/01/30 01:40:04;;;;;;;1.73;0.60;;;7.90;99.90;;;;;;4967508;29;20035;-72
2022/01/30 01:42:33;;;;;;;1.27;0.80;;;7.90;99.90;;;;;;5021152;23;20096;-83
2022/01/30 01:44:59;;;;;;;0.88;0.80;;;8.00;99.90;;;;;;5074410;28;20199;-82
2022/01/30 01:47:30;;;;;;;1.85;0.70;;;7.90;99.90;;;;;;5056884;28;20048;-83
2022/01/30 01:49:56;;;;;;;;;;;7.90;99.90;;;;;;5073403;28;20089;-82
2022/01/30 01:52:23;;;;;;;0.80;0.80;;;7.80;99.90;;;;;;5057175;28;19897;-82
2022/01/30 01:54:57;;;;;;;1.40;0.73;;;7.80;99.90;;;;;;5057801;28;20012;-80
2022/01/30 01:57:25;;;;;;;2.15;0.80;;;7.80;99.90;;;;;;5058060;28;20029;-82
2022/01/30 01:59:51;;;;;;;0.80;0.80;;;7.80;99.90;;;;;;5057336;28;20101;-81
2022/01/30 02:02:17;;;;;;;3.55;1.08;;;7.90;99.90;;;;;;5057904;28;20029;-82
2022/01/30 02:04:43;;;;;;;2.10;0.82;;;7.90;99.90;;;;;;5056964;28;20325;-81
2022/01/30 02:09:54;;;;;;;3.25;0.80;;;7.90;99.90;;;;;;5057721;28;20040;-83
2022/01/30 02:12:28;;;;;;;0.70;0.70;;;7.90;99.90;;;;;;5057758;28;20101;-83
2022/01/30 02:15:17;;;;;;;1.10;0.90;;;8.00;99.90;;;;;;5057281;28;20097;-82
2022/01/30 02:25:58;;;;;;;0.68;0.60;;;7.90;99.90;;;;;;5057441;28;20040;-81
2022/01/30 02:28:26;;;;;;;0.50;0.50;;;7.80;99.90;;;;;;5056326;28;20006;-82
2022/01/30 02:31:01;;;;;;;1.15;0.52;;;7.80;99.90;;;;;;5057486;28;20017;-81
2022/01/30 02:33:26;;;;;;;0.60;0.50;;;7.80;99.90;;;;;;5055917;28;20037;-83
2022/01/30 02:35:52;;;;;;;0.77;0.47;;;7.80;99.90;;;;;;5053866;28;20051;-83
2022/01/30 02:38:27;;;;;;;0.90;0.82;;;7.80;99.90;;;;;;5054751;28;20009;-82
2022/01/30 02:40:55;;;;;;;0.47;0.40;;;7.80;99.90;;;;;;5058259;28;20113;-84
2022/01/30 02:43:27;;;;;;;1.95;0.50;;;7.80;99.90;;;;;;5058107;28;20041;-83
2022/01/30 02:46:08;;;;;;;1.30;0.38;;;7.90;99.90;;;;;;5057443;28;20041;-82
2022/01/30 02:48:53;;;;;;;1.85;0.40;;;7.90;99.90;;;;;;5058078;28;20025;-82
2022/01/30 02:51:21;;;;;;;0.63;0.63;;;7.90;99.90;;;;;;5058400;28;20040;-83
2022/01/30 02:53:55;;;;;;;0.65;0.65;;;7.90;99.90;;;;;;5057598;28;20009;-82
2022/01/30 02:56:22;;;;;;;0.90;0.80;;;7.90;99.90;;;;;;5058245;28;20018;-82
2022/01/30 02:58:47;;;;;;;0.80;0.70;;;8.00;99.90;;;;;;5058171;28;20013;-82
2022/01/30 03:01:13;;;;;;;2.10;1.10;;;7.90;99.90;;;;;;5058167;28;20017;-83
2022/01/30 03:03:38;;;;;;;3.33;1.30;;;8.00;99.90;;;;;;5057960;28;20036;-82
2022/01/30 03:06:04;;;;;;;1.83;1.05;;;8.10;99.90;;;;;;5056316;28;20050;-81
2022/01/30 03:08:29;;;;;;;1.35;0.88;;;8.10;99.90;;;;;;5056408;28;20041;-81
2022/01/30 03:10:55;;;;;;;1.30;0.90;;;8.10;99.90;;;;;;5056647;28;20018;-82
2022/01/30 03:13:21;;;;;;;1.55;0.93;;;8.10;99.90;;;;;;5057868;28;20043;-82
2022/01/30 03:15:46;;;;;;;1.08;0.70;;;8.00;99.90;;;;;;5057890;28;20018;-81
2022/01/30 03:18:12;;;;;;;2.03;0.90;;;8.10;99.90;;;;;;5057782;28;20017;-82
2022/01/30 03:20:37;;;;;;;2.92;1.00;;;8.00;99.90;;;;;;5057654;28;20041;-82
2022/01/30 03:23:03;;;;;;;1.27;0.60;;;8.00;99.90;;;;;;5056968;28;20063;-81
2022/01/30 03:25:32;;;;;;;2.08;0.93;;;8.00;99.90;;;;;;5056677;28;20018;-82
2022/01/30 03:27:58;;;;;;;1.50;1.13;;;8.00;99.90;;;;;;5054356;28;20034;-82
2022/01/30 03:30:29;;;;;;;2.83;0.93;;;7.90;99.90;;;;;;5053075;28;20033;-82
2022/01/30 03:32:55;;;;;;;3.70;0.90;;;7.90;99.90;;;;;;5052132;28;20017;-82
2022/01/30 03:35:21;;;;;;;1.27;0.60;;;7.90;99.90;;;;;;5050586;28;20060;-83
2022/01/30 03:37:47;;;;;;;2.80;0.90;;;7.90;99.90;;;;;;5052528;28;20029;-82
2022/01/30 03:40:12;;;;;;;1.10;0.80;;;7.90;99.90;;;;;;5053602;28;20025;-82
2022/01/30 03:42:38;;;;;;;2.13;0.85;;;7.90;99.90;;;;;;5056027;28;20101;-82
2022/01/30 03:45:05;;;;;;;2.67;0.60;;;7.90;99.90;;;;;;5056347;28;20021;-82
2022/01/30 03:47:30;;;;;;;0.60;0.60;;;7.80;99.90;;;;;;5055331;28;20045;-83
2022/01/30 03:49:56;;;;;;;2.80;1.40;;;7.90;99.90;;;;;;5053914;28;20037;-82
2022/01/30 03:52:22;;;;;;;2.72;0.80;;;7.90;99.90;;;;;;5054334;28;20029;-83
2022/01/30 03:54:47;;;;;;;3.03;0.70;;;7.90;99.90;;;;;;5055558;28;20040;-82
2022/01/30 03:57:13;;;;;;;1.92;0.70;;;7.90;99.90;;;;;;5054834;28;20025;-82
2022/01/30 03:59:39;;;;;;;2.78;1.02;;;7.90;99.90;;;;;;5055452;28;20077;-82
2022/01/30 04:02:04;;;;;;;2.88;0.82;;;7.90;99.90;;;;;;5055296;28;20029;-82
2022/01/30 04:04:33;;;;;;;2.20;1.00;;;7.90;99.90;;;;;;5051753;28;20033;-83
2022/01/30 04:06:59;;;;;;;3.28;1.55;;;8.00;99.90;;;;;;5052227;28;20033;-82
2022/01/30 04:09:27;;;;;;;2.17;1.30;;;8.00;99.90;;;;;;5054955;28;20044;-83
2022/01/30 04:11:53;;;;;;;4.68;2.17;;;8.00;99.90;;;;;;5054545;28;20217;-83
2022/01/30 04:14:20;;;;;;;2.78;1.27;;;7.90;99.90;;;;;;5036463;28;20457;-82
2022/01/30 04:16:46;;;;;;;3.03;1.20;;;8.00;99.90;;;;;;5035350;28;20021;-82
2022/01/30 04:19:12;;;;;;;4.15;1.70;;;8.00;99.90;;;;;;5036909;28;20397;-83
2022/01/30 04:21:38;;;;;;;5.55;1.30;;;7.90;99.90;;;;;;5041070;28;20028;-81
2022/01/30 04:24:04;;;;;;;5.03;1.52;;;7.90;99.90;;;;;;5041704;28;20017;-82
2022/01/30 04:26:30;;;;;;;3.38;1.25;;;7.90;99.90;;;;;;5053132;28;20041;-82
2022/01/30 04:28:56;;;;;;;3.83;1.55;;;7.90;99.90;;;;;;5058182;28;20034;-82
2022/01/30 04:31:22;;;;;;;3.90;1.60;;;7.90;99.90;;;;;;5052637;28;20048;-82
2022/01/30 04:33:48;;;;;;;5.85;1.80;;;7.90;99.90;;;;;;5055239;28;20029;-82
2022/01/30 04:36:19;;;;;;;2.83;1.58;;;7.80;99.90;;;;;;5056480;28;20033;-82
2022/01/30 04:57:36;;;;;;;5.07;2.83;;;7.60;99.90;;;;;;5054161;28;20037;-83
2022/01/30 05:02:58;;;;;;;3.70;2.13;;;7.60;99.90;;;;;;5053176;28;20005;-83
2022/01/30 05:08:03;;;;;;;5.50;1.95;;;7.60;99.90;;;;;;5048992;28;20068;-82
2022/01/30 05:10:28;;;;;;;8.30;2.17;;;7.50;99.90;;;;;;5048053;28;20024;-82
2022/01/30 05:12:57;;;;;;;3.85;2.08;;;7.50;99.90;;;;;;5050276;28;20066;-82
2022/01/30 05:15:26;;;;;;;8.85;2.53;;;7.40;99.90;;;;;;5051230;28;20026;-81
2022/01/30 05:17:52;;;;;;;5.07;1.75;;;7.40;99.90;;;;;;5051710;28;20021;-83
2022/01/30 05:20:17;;;;;;;7.88;2.13;;;7.50;99.90;;;;;;5050355;28;20070;-82
2022/01/30 05:22:44;;;;;;;10.57;2.67;;;7.40;99.90;;;;;;5053233;28;20105;-83
2022/01/30 05:25:10;;;;;;;6.70;2.20;;;7.30;99.90;;;;;;5052242;28;20033;-82
2022/01/30 05:27:36;;;;;;;6.32;2.50;;;7.30;99.90;;;;;;5052607;28;20025;-83
2022/01/30 05:30:03;;;;;;;7.50;2.55;;;7.20;99.90;;;;;;5056508;28;20073;-83
2022/01/30 05:32:29;;;;;;;7.15;2.05;;;7.20;99.90;;;;;;5054285;28;20033;-82
2022/01/30 05:34:56;;;;;;;5.05;1.83;;;7.10;99.90;;;;;;5053536;28;20029;-83
2022/01/30 05:37:22;;;;;;;7.60;3.33;;;7.10;99.90;;;;;;5057359;28;20021;-83
2022/01/30 05:39:48;;;;;;;10.38;2.25;;;7.10;99.90;;;;;;5056196;28;20033;-84
2022/01/30 05:42:14;;;;;;;7.03;3.05;;;7.10;99.90;;;;;;5052831;28;20045;-82
2022/01/30 05:44:52;;;;;;;4.45;2.33;;;7.10;99.90;;;;;;5052034;28;20032;-81
2022/01/30 05:47:27;;;;;;;11.55;4.03;;;7.20;99.90;;;;;;5052450;28;20053;-82
2022/01/30 05:49:53;;;;;;;6.82;2.65;;;7.20;99.90;;;;;;5050876;28;20049;-83
2022/01/30 05:52:18;;;;;;;5.65;2.72;;;7.20;99.90;;;;;;5047038;28;20067;-82
2022/01/30 05:54:44;;;;;;;9.25;2.75;;;7.20;99.90;;;;;;5051766;28;20030;-83
2022/01/30 05:57:09;;;;;;;6.35;2.40;;;7.20;99.90;;;;;;5055743;28;20029;-83
2022/01/30 05:59:35;;;;;;;10.73;3.55;;;7.20;99.90;;;;;;5057430;28;20180;-83
2022/01/30 06:02:01;;;;;;;9.85;3.08;;;7.10;99.90;;;;;;5057442;28;20041;-83
2022/01/30 06:04:26;;;;;;;4.80;2.30;;;7.10;99.90;;;;;;5053760;28;20902;-84
2022/01/30 06:06:54;;;;;;;10.35;2.80;;;7.00;99.90;;;;;;5050723;28;20029;-83
2022/01/30 06:09:20;;;;;;;6.47;2.08;;;7.00;99.90;;;;;;5052103;28;20214;-83
2022/01/30 06:11:52;;;;;;;8.75;2.10;;;6.90;99.90;;;;;;5048244;28;20093;-83
2022/01/30 06:14:18;;;;;;;6.20;2.70;;;7.00;99.90;;;;;;5051915;28;20025;-83
2022/01/30 06:16:44;;;;;;;9.27;2.63;;;7.00;99.90;;;;;;5049768;28;20021;-83
2022/01/30 06:19:10;;;;;;;4.18;2.83;;;7.00;99.90;;;;;;5050371;28;20057;-82
2022/01/30 06:21:35;;;;;;;8.32;3.03;;;7.00;99.90;;;;;;5054370;28;20022;-82
2022/01/30 06:24:05;;;;;;;11.85;3.72;;;7.00;99.90;;;;;;5056943;28;20068;-84
2022/01/30 06:26:30;;;;;;;13.82;2.60;;;7.00;99.90;;;;;;5056187;28;20049;-81
2022/01/30 06:28:56;;;;;;;14.95;3.13;;;6.90;99.90;;;;;;5055173;28;20026;-82
2022/01/30 06:31:22;;;;;;;9.52;2.58;;;7.00;99.90;;;;;;5045399;28;20057;-82
2022/01/30 06:33:48;;;;;;;8.00;2.10;;;7.00;99.90;;;;;;5051210;28;20101;-83
2022/01/30 06:36:13;;;;;;;6.20;2.40;;;6.90;99.90;;;;;;5050788;28;20477;-83
2022/01/30 06:38:39;;;;;;;8.70;2.80;;;6.80;99.90;;;;;;5052151;28;20029;-82
2022/01/30 06:41:04;;;;;;;10.00;2.40;;;6.80;99.90;;;;;;5049856;28;20029;-82
2022/01/30 06:43:30;;;;;;;9.52;2.67;;;6.80;99.90;;;;;;5050444;28;20106;-82
2022/01/30 06:45:56;;;;;;;9.00;2.40;;;6.70;99.90;;;;;;5050791;28;20048;-82
2022/01/30 06:48:22;;;;;;;9.57;2.40;;;6.70;99.90;;;;;;5051562;28;20018;-82
2022/01/30 06:50:48;;;;;;;5.63;1.90;;;6.70;99.90;;;;;;5050652;28;20025;-82
2022/01/30 06:53:14;;;;;;;13.38;2.42;;;6.60;99.90;;;;;;5051526;28;20026;-82
2022/01/30 06:55:42;;;;;;;6.60;2.13;;;6.60;99.90;;;;;;5050275;28;20037;-82
2022/01/30 06:58:14;;;;;;;10.18;4.47;;;6.60;99.90;;;;;;5050767;28;20096;-83
2022/01/30 07:00:40;;;;;;;9.55;2.70;;;6.50;99.90;;;;;;5051308;28;20055;-83
2022/01/30 07:03:06;;;;;;;6.82;2.50;;;6.50;99.90;;;;;;5048366;28;20060;-83
2022/01/30 07:05:31;;;;;;;9.43;2.72;;;6.40;99.90;;;;;;5049335;28;20425;-83
2022/01/30 07:07:57;;;;;;;6.68;2.20;;;6.30;99.90;;;;;;5049921;28;20036;-82
2022/01/30 07:10:23;;;;;;;8.27;2.65;;;6.30;99.90;;;;;;5049754;28;20021;-83
2022/01/30 07:12:48;;;;;;;11.23;2.42;;;6.30;99.90;;;;;;5050159;28;20005;-83
2022/01/30 07:15:15;;;;;;;10.20;1.85;;;6.30;99.90;;;;;;5047815;28;20022;-82
2022/01/30 07:17:41;;;;;;;12.23;2.55;;;6.30;99.90;;;;;;5050107;28;20029;-81
2022/01/30 07:20:08;;;;;;;7.15;2.10;;;6.30;99.90;;;;;;5053182;28;20032;-82
2022/01/30 07:22:33;;;;;;;7.93;3.33;;;6.30;99.90;;;;;;5048505;28;20040;-82
2022/01/30 07:24:59;;;;;;;10.23;2.42;;;6.30;99.90;;;;;;5051952;28;20021;-83
2022/01/30 07:27:25;;;;;;;7.30;2.53;;;6.30;99.90;;;;;;5056517;28;20017;-82
2022/01/30 07:29:51;;;;;;;6.38;2.20;;;6.40;99.90;;;;;;5055655;28;20034;-81
2022/01/30 07:32:16;;;;;;;8.27;2.33;;;6.40;99.90;;;;;;5056186;28;20025;-83
2022/01/30 07:34:44;;;;;;;8.68;2.45;;;6.50;99.90;;;;;;5056650;28;20092;-82
2022/01/30 07:37:10;;;;;;;12.63;3.55;;;6.50;99.90;;;;;;5051147;28;20033;-84
2022/01/30 07:39:37;;;;;;;10.88;3.55;;;6.40;99.90;;;;;;5050083;28;20028;-82
2022/01/30 07:42:03;;;;;;;12.95;3.35;;;6.40;99.90;;;;;;5048842;28;20040;-83
2022/01/30 07:44:29;;;;;;;7.00;2.80;;;6.30;99.90;;;;;;5051418;28;20025;-83
2022/01/30 07:46:55;;;;;;;15.43;4.28;;;6.40;99.90;;;;;;5056407;28;20055;-83
2022/01/30 07:49:21;;;;;;;8.85;2.53;;;6.40;99.90;;;;;;5052645;28;20051;-82
2022/01/30 07:51:46;;;;;;;9.77;2.85;;;6.50;99.90;;;;;;5054003;28;20025;-82
2022/01/30 07:54:12;;;;;;;8.98;2.28;;;6.50;99.90;;;;;;5056516;28;20029;-83
2022/01/30 07:56:37;;;;;;;9.77;3.47;;;6.50;99.90;;;;;;5057422;28;20036;-81
2022/01/30 07:59:03;;;;;;;9.65;3.05;;;6.60;99.90;;;;;;5055341;28;20029;-83
2022/01/30 08:01:29;;;;;;;6.35;2.45;;;6.60;99.90;;;;;;5054500;28;20013;-82
2022/01/30 08:03:54;;;;;;;9.07;2.80;;;6.60;99.90;;;;;;5056134;28;20044;-83
2022/01/30 08:06:20;;;;;;;11.20;2.47;;;6.60;99.90;;;;;;5056492;28;20395;-83
2022/01/30 08:08:45;;;;;;;12.57;4.22;;;6.50;99.90;;;;;;5053908;28;20029;-84
2022/01/30 08:11:11;;;;;;;8.85;3.65;;;6.50;99.90;;;;;;5053071;28;20022;-82
2022/01/30 08:13:37;;;;;;;11.68;3.75;;;6.40;99.90;;;;;;5059526;28;20033;-82
2022/01/30 08:16:05;;;;;;;11.43;2.80;;;6.40;99.90;;;;;;5054370;28;20049;-83
2022/01/30 08:18:32;;;;;;;7.43;2.80;;;6.40;99.90;;;;;;5053757;28;20089;-82
2022/01/30 08:20:58;;;;;;;15.57;4.13;;;6.40;99.90;;;;;;5054857;28;20068;-83
2022/01/30 08:23:27;;;;;;;9.40;2.63;;;6.40;99.90;;;;;;5050808;28;20030;-82
2022/01/30 08:25:53;;;;;;;11.65;3.40;;;6.40;99.90;;;;;;5052572;28;20017;-82
2022/01/30 08:28:18;;;;;;;13.35;3.40;;;6.40;99.90;;;;;;5052510;28;20048;-82
2022/01/30 08:30:45;;;;;;;13.30;3.15;;;6.40;99.90;;;;;;5052421;28;20034;-82
2022/01/30 08:33:14;;;;;;;9.00;2.47;;;6.40;99.90;;;;;;5051673;28;20024;-83
2022/01/30 08:35:40;;;;;;;9.55;2.65;;;6.40;99.90;;;;;;5050182;28;20017;-83
2022/01/30 08:38:05;;;;;;;6.03;2.55;;;6.50;99.90;;;;;;5051388;28;20032;-82
2022/01/30 08:40:31;;;;;;;10.95;2.35;;;6.40;99.90;;;;;;5051950;28;20029;-83
2022/01/30 08:42:57;;;;;;;12.38;2.72;;;6.40;99.90;;;;;;5049511;28;20029;-83
2022/01/30 08:45:22;;;;;;;11.48;3.35;;;6.50;99.90;;;;;;5051107;28;20021;-82
2022/01/30 08:47:50;;;;;;;11.05;2.80;;;6.50;99.90;;;;;;5050447;28;20105;-82
2022/01/30 08:50:18;;;;;;;9.90;3.25;;;6.50;99.90;;;;;;5050359;28;20021;-85
2022/01/30 08:52:44;;;;;;;7.90;2.60;;;6.50;99.90;;;;;;5051934;28;20022;-82
2022/01/30 08:55:11;;;;;;;8.52;2.30;;;6.50;99.90;;;;;;5050812;28;20022;-83
2022/01/30 08:57:36;;;;;;;8.98;2.60;;;6.40;99.90;;;;;;5056975;28;20025;-82
2022/01/30 09:00:05;;;;;;;13.75;3.08;;;6.40;99.90;;;;;;5054212;28;20056;-83
2022/01/30 09:02:31;;;;;;;10.27;2.47;;;6.40;99.90;;;;;;5055222;28;20033;-83
2022/01/30 09:04:57;;;;;;;10.85;2.97;;;6.50;99.90;;;;;;5056980;28;20025;-82
2022/01/30 09:07:22;;;;;;;5.53;2.10;;;6.80;99.90;;;;;;5050568;28;20034;-82
2022/01/30 09:09:48;;;;;;;10.13;3.55;;;6.60;99.90;;;;;;5050221;28;20021;-83
2022/01/30 09:12:14;;;;;;;8.68;2.95;;;6.60;99.90;;;;;;5051696;28;20032;-82
2022/01/30 09:14:41;;;;;;;10.50;2.67;;;6.70;99.90;;;;;;5053655;28;20009;-82
2022/01/30 09:17:13;;;;;;;7.13;2.22;;;6.60;99.90;;;;;;5049247;28;20096;-83
2022/01/30 09:19:40;;;;;;;8.23;2.42;;;6.70;99.90;;;;;;5049285;28;20045;-83
2022/01/30 09:22:08;;;;;;;14.77;3.50;;;7.00;99.90;;;;;;5049816;28;20017;-83
2022/01/30 09:24:33;;;;;;;14.73;3.30;;;7.00;99.90;;;;;;5059520;28;20027;-83
2022/01/30 09:26:59;;;;;;;15.55;3.83;;;7.30;99.90;;;;;;5058704;28;20037;-83
2022/01/30 09:29:25;;;;;;;11.25;3.42;;;7.30;99.90;;;;;;5059672;28;20014;-82
2022/01/30 09:31:50;;;;;;;11.35;2.80;;;7.30;99.90;;;;;;5058655;28;20033;-83
2022/01/30 09:34:16;;;;;;;12.52;3.58;;;7.20;99.90;;;;;;5056926;28;20030;-82
2022/01/30 09:36:41;;;;;;;10.95;3.53;;;7.00;99.90;;;;;;5055318;28;20025;-85
2022/01/30 09:39:07;;;;;;;15.95;3.10;;;6.90;99.90;;;;;;5053648;28;20035;-84
2022/01/30 09:41:33;;;;;;;8.32;2.55;;;7.00;99.90;;;;;;5055582;28;20040;-84
2022/01/30 09:44:01;;;;;;;11.75;2.70;;;7.10;99.90;;;;;;5057061;28;20037;-83
2022/01/30 09:46:32;;;;;;;8.25;2.60;;;7.30;99.90;;;;;;5058971;28;20135;-82
2022/01/30 09:48:58;;;;;;;9.90;2.67;;;7.40;99.90;;;;;;5058493;28;20032;-84
2022/01/30 09:51:24;;;;;;;8.07;2.45;;;7.40;99.90;;;;;;5058940;28;20044;-83
2022/01/30 09:53:50;;;;;;;12.00;3.15;;;7.50;99.90;;;;;;5058588;28;20025;-83
2022/01/30 09:56:18;;;;;;;10.60;2.90;;;7.40;99.90;;;;;;5053056;28;20021;-83
2022/01/30 09:58:44;;;;;;;11.18;3.28;;;7.30;99.90;;;;;;5052788;28;20026;-82
2022/01/30 10:01:10;;;;;;;13.18;3.72;;;7.30;99.90;;;;;;5052509;28;20028;-82
2022/01/30 10:03:35;;;;;;;9.73;2.55;;;7.30;99.90;;;;;;5057231;28;20021;-81
2022/01/30 10:06:15;;;;;;;10.45;3.47;;;7.30;99.90;;;;;;5056246;28;20034;-83
2022/01/30 10:08:46;;;;;;;11.70;2.78;;;7.30;99.90;;;;;;5055027;28;20021;-83
2022/01/30 10:11:28;;;;;;;7.88;2.90;;;7.40;99.90;;;;;;5055938;28;20021;-83
2022/01/30 10:14:06;;;;;;;15.30;3.70;;;7.50;99.90;;;;;;5051298;28;20026;-85
2022/01/30 10:16:43;;;;;;;8.38;2.70;;;7.50;99.90;;;;;;5050559;28;20029;-83
2022/01/30 10:19:20;;;;;;;11.00;2.97;;;7.60;99.90;;;;;;5048843;28;20093;-82
2022/01/30 10:21:47;;;;;;;15.23;3.28;;;7.70;99.90;;;;;;5049478;28;20037;-83
2022/01/30 10:24:23;;;;;;;9.52;2.20;;;7.80;99.90;;;;;;5049169;28;20025;-83
2022/01/30 10:26:51;;;;;;;15.70;2.47;;;7.60;99.90;;;;;;5049359;28;20052;-85
2022/01/30 10:29:21;;;;;;;6.10;3.05;;;7.70;99.90;;;;;;5050501;28;20048;-83
2022/01/30 10:32:10;;;;;;;8.05;2.60;;;7.50;99.90;;;;;;5046431;28;20025;-82
2022/01/30 10:34:38;;;;;;;11.48;1.98;;;7.40;99.90;;;;;;5047782;28;20051;-84
2022/01/30 10:37:22;;;;;;;8.77;2.97;;;7.20;99.90;;;;;;5046764;28;20025;-84
2022/01/30 10:40:13;;;;;;;11.77;2.92;;;7.10;99.90;;;;;;5049836;28;20005;-82
2022/01/30 10:42:43;;;;;;;6.80;1.92;;;7.20;99.90;;;;;;5045843;28;20049;-83
2022/01/30 10:45:29;;;;;;;9.55;2.30;;;7.10;99.90;;;;;;5047969;28;20010;-82
2022/01/30 10:48:08;;;;;;;10.25;2.58;;;7.00;99.90;;;;;;5046880;28;20025;-83
2022/01/30 10:50:33;;;;;;;7.10;2.05;;;7.10;99.90;;;;;;5047056;28;20021;-82
2022/01/30 10:53:03;;;;;;;10.98;2.67;;;7.20;99.90;;;;;;5046729;28;20089;-83
2022/01/30 10:55:40;;;;;;;10.43;2.90;;;7.30;99.90;;;;;;5046352;28;20045;-84
2022/01/30 10:58:09;;;;;;;13.93;3.70;;;7.30;99.90;;;;;;5047013;28;20018;-83
2022/01/30 11:00:52;;;;;;;10.35;2.90;;;7.30;99.90;;;;;;5048833;28;20025;-85
2022/01/30 11:03:50;;;;;;;6.55;2.28;;;7.30;99.90;;;;;;5049003;28;20033;-85
2022/01/30 11:06:16;;;;;;;10.52;2.63;;;7.50;99.90;;;;;;5047880;28;20021;-83
2022/01/30 11:08:46;;;;;;;4.68;1.90;;;7.50;99.90;;;;;;5050061;28;20018;-83
2022/01/30 11:11:35;;;;;;;6.73;2.97;;;7.40;99.90;;;;;;5051455;28;20025;-82
2022/01/30 11:14:16;;;;;;;9.52;3.08;;;7.60;99.90;;;;;;5047166;28;20089;-84
2022/01/30 11:19:27;;;;;;;15.75;4.35;;;7.30;99.90;;;;;;5049280;28;20048;-85
2022/01/30 11:21:56;;;;;;;9.35;2.22;;;7.30;99.90;;;;;;5046331;28;20021;-82
2022/01/30 11:24:24;;;;;;;7.18;2.38;;;7.40;99.90;;;;;;5045362;28;20048;-84
2022/01/30 11:26:50;;;;;;;9.68;2.40;;;7.60;99.90;;;;;;5045254;28;20033;-84
2022/01/30 11:29:20;;;;;;;7.90;3.47;;;7.70;99.90;;;;;;5048204;28;20060;-86
2022/01/30 11:31:46;;;;;;;10.93;2.60;;;7.70;99.90;;;;;;5043997;28;20087;-84
2022/01/30 11:34:12;;;;;;;11.63;2.72;;;7.50;99.90;;;;;;5044804;28;20025;-83
2022/01/30 11:36:40;;;;;;;8.63;2.20;;;7.30;99.90;;;;;;5047806;28;20025;-84
2022/01/30 11:39:08;;;;;;;14.23;3.00;;;7.50;99.90;;;;;;5049508;28;20418;-83
2022/01/30 11:41:34;;;;;;;9.63;3.05;;;7.60;99.90;;;;;;5045751;28;20021;-83
2022/01/30 11:44:18;;;;;;;10.73;2.55;;;7.80;99.90;;;;;;5049353;28;20435;-83
2022/01/30 11:47:14;;;;;;;13.43;2.63;;;8.10;99.90;;;;;;5052644;28;20065;-83
2022/01/30 11:49:53;;;;;;;13.30;2.85;;;8.20;99.90;;;;;;5051069;28;20013;-84
2022/01/30 11:52:20;;;;;;;10.27;2.80;;;8.60;99.90;;;;;;5055688;28;20022;-82
2022/01/30 11:54:50;;;;;;;10.02;2.75;;;8.40;99.90;;;;;;5054223;28;20090;-83
2022/01/30 11:57:21;;;;;;;8.05;2.42;;;8.60;99.90;;;;;;5049507;28;20224;-82
2022/01/30 11:59:48;;;;;;;10.52;2.03;;;8.50;99.90;;;;;;5047282;28;20024;-84
2022/01/30 12:02:30;;;;;;;10.20;2.67;;;8.10;99.90;;;;;;5047163;28;20028;-85
2022/01/30 12:05:07;;;;;;;13.27;3.30;;;8.00;99.90;;;;;;5048084;28;20457;-84
2022/01/30 12:07:38;;;;;;;9.07;2.88;;;8.20;99.90;;;;;;5044761;28;20030;-82
2022/01/30 12:10:19;;;;;;;;;;;8.00;99.90;;;;;;5042126;28;20017;-84
2022/01/30 12:12:53;;;;;;;13.40;2.70;;;7.90;99.90;;;;;;5052158;28;20426;-86
2022/01/30 12:15:33;;;;;;;11.70;2.30;;;7.80;99.90;;;;;;5036190;28;20811;-83
2022/01/30 12:18:00;;;;;;;9.48;2.42;;;7.70;99.90;;;;;;5036072;28;20033;-83
2022/01/30 12:20:28;;;;;;;13.07;3.65;;;7.60;99.90;;;;;;5045109;28;20065;-83
2022/01/30 12:22:55;;;;;;;10.00;3.58;;;7.60;99.90;;;;;;5054899;28;20026;-83
2022/01/30 12:25:30;;;;;;;10.73;3.38;;;7.60;99.90;;;;;;5048971;28;20068;-84
2022/01/30 12:28:02;;;;;;;9.98;2.38;;;7.50;99.90;;;;;;5040826;28;20396;-84
2022/01/30 12:30:38;;;;;;;14.77;4.43;;;7.30;99.90;;;;;;5040257;28;20018;-83
2022/01/30 12:33:40;;;;;;;9.70;2.20;;;7.30;99.90;;;;;;5040502;28;20033;-84
2022/01/30 12:36:13;;;;;;;11.48;3.22;;;7.20;99.90;;;;;;5020187;28;20068;-83
2022/01/30 12:38:38;;;;;;;8.98;2.58;;;7.20;99.90;;;;;;5053407;28;20035;-85
2022/01/30 12:41:19;;;;;;;9.27;2.45;;;7.30;99.90;;;;;;5049429;28;20393;-84
2022/01/30 12:43:50;;;;;;;10.33;2.47;;;7.60;99.90;;;;;;5048589;28;20167;-82
2022/01/30 12:46:15;;;;;;;8.27;1.80;;;7.80;99.90;;;;;;5053328;28;20280;-84
2022/01/30 12:48:41;;;;;;;9.65;2.13;;;7.90;99.90;;;;;;5057341;28;20064;-85
2022/01/30 12:51:13;;;;;;;10.05;1.77;;;8.00;99.90;;;;;;5048966;28;20022;-83
2022/01/30 12:53:41;;;;;;;9.80;2.75;;;8.00;99.90;;;;;;5048024;28;20036;-83
2022/01/30 12:56:07;;;;;;;15.18;3.88;;;7.90;99.90;;;;;;5048489;28;20052;-82
2022/01/30 12:58:35;;;;;;;5.35;2.00;;;7.90;99.90;;;;;;5048447;28;20405;-83
2022/01/30 13:01:14;;;;;;;4.55;2.03;;;8.00;99.90;;;;;;5049494;28;20025;-85
2022/01/30 13:03:41;;;;;;;8.48;2.40;;;7.90;99.90;;;;;;5049693;28;20033;-87
2022/01/30 13:06:06;;;;;;;10.48;3.08;;;7.80;99.90;;;;;;5052435;28;20029;-84
2022/01/30 13:08:48;;;;;;;5.63;2.00;;;7.70;99.90;;;;;;5050990;28;20024;-86
2022/01/30 13:11:21;;;;;;;9.77;1.83;;;7.50;99.90;;;;;;5060084;28;20032;-82
2022/01/30 13:13:57;;;;;;;6.07;1.90;;;7.30;99.90;;;;;;5059308;28;20089;-84
2022/01/30 13:16:27;;;;;;;8.43;2.65;;;7.20;99.90;;;;;;5058101;28;20112;-86
2022/01/30 13:18:52;;;;;;;9.13;3.22;;;7.20;99.90;;;;;;5057126;28;20017;-84
2022/01/30 13:21:23;;;;;;;9.38;2.35;;;7.30;99.90;;;;;;5057892;28;20037;-83
2022/01/30 13:23:52;;;;;;;11.70;2.15;;;7.30;99.90;;;;;;5055560;28;20014;-85
2022/01/30 13:26:32;;;;;;;14.20;3.10;;;7.30;99.90;;;;;;5053756;28;20029;-83
2022/01/30 13:28:59;;;;;;;6.82;2.22;;;7.30;99.90;;;;;;5054562;28;20030;-83
2022/01/30 13:31:25;;;;;;;7.60;2.05;;;7.30;99.90;;;;;;5054841;28;20008;-84
2022/01/30 13:34:17;;;;;;;9.25;2.65;;;7.40;99.90;;;;;;5054673;28;20033;-84
2022/01/30 13:36:53;;;;;;;8.40;3.70;;;7.70;99.90;;;;;;5054181;28;20017;-84
2022/01/30 13:39:32;;;;;;;14.77;2.85;;;7.60;99.90;;;;;;5052139;28;20029;-85
2022/01/30 13:44:26;;;;;;;8.93;2.05;;;7.70;99.90;;;;;;5035639;23;20532;-73
2022/01/30 13:47:00;;;;;;;9.02;2.63;;;7.80;99.90;;;;;;5018026;28;20083;-73
2022/01/30 13:49:26;;;;;;;12.60;3.17;;;7.70;99.90;;;;;;5017699;28;20026;-74
2022/01/30 13:52:10;;;;;;;9.32;2.13;;;7.80;99.90;;;;;;5017033;28;20022;-76
2022/01/30 13:54:39;;;;;;;8.80;2.10;;;7.60;99.90;;;;;;4997822;28;20022;-72
2022/01/30 13:57:10;;;;;;;5.72;1.83;;;7.60;99.90;;;;;;4998155;28;20026;-76
2022/01/30 13:59:36;;;;;;;4.13;1.70;;;7.60;99.90;;;;;;4996881;28;20379;-74